Time;durP1;ratioP1;P1;durP2;ratioP2;P2;SDS_P1;SDS_P2;PMS_P1;PMS_P2;Temp;Humidity;BMP_temperature;BMP_pressure;BME280_temperature;BME280_humidity;BME280_pressure;Samples;Min_cycle;Max_cycle;Signal;HPM_P1;HPM_P2
2022/06/29 00:01:31;;;;;;;;;2.00;1.00;;;;;26.14;49.38;98736.00;4942717;28;104067;-62
2022/06/29 00:03:58;;;;;;;;;0.33;0.33;;;;;26.13;49.42;98742.69;4892638;28;102366;-62
2022/06/29 00:06:25;;;;;;;;;0.33;0.33;;;;;26.12;49.40;98739.06;4924090;28;102276;-62
2022/06/29 00:08:52;;;;;;;;;2.00;2.00;;;;;26.12;49.41;98749.34;4916005;28;102600;-62
2022/06/29 00:11:19;;;;;;;;;1.67;1.67;;;;;26.11;49.43;98756.84;4923036;28;104083;-62
2022/06/29 00:13:47;;;;;;;;;1.00;1.00;;;;;26.10;49.36;98746.06;4898139;28;102461;-62
2022/06/29 00:16:14;;;;;;;;;1.67;1.00;;;;;26.11;49.39;98736.63;4938164;28;102210;-62
2022/06/29 00:18:41;;;;;;;;;1.67;1.67;;;;;26.10;49.38;98730.25;4939537;28;102504;-62
2022/06/29 00:21:08;;;;;;;;;2.00;1.00;;;;;26.10;49.39;98729.44;4938431;28;104334;-62
2022/06/29 00:23:36;;;;;;;;;0.33;0.33;;;;;26.09;49.42;98728.59;4940612;28;102222;-61
2022/06/29 00:26:03;;;;;;;;;2.00;2.00;;;;;26.08;49.52;98724.16;4939692;28;103576;-62
2022/06/29 00:28:30;;;;;;;;;1.00;0.00;;;;;26.09;49.43;98727.78;4940390;28;102266;-62
2022/06/29 00:30:57;;;;;;;;;2.00;1.00;;;;;26.08;49.56;98734.44;4930056;28;104043;-63
2022/06/29 00:33:25;;;;;;;;;1.00;1.00;;;;;26.07;49.49;98735.56;4944254;28;102272;-62
2022/06/29 00:35:52;;;;;;;;;1.33;1.00;;;;;26.06;49.49;98728.38;4933331;28;103178;-62
2022/06/29 00:38:19;;;;;;;;;1.00;1.00;;;;;26.05;49.48;98723.94;4928232;28;102154;-62
2022/06/29 00:40:47;;;;;;;;;1.00;1.00;;;;;26.05;49.49;98721.19;4926663;28;104201;-63
2022/06/29 00:43:14;;;;;;;;;1.00;1.00;;;;;26.05;49.43;98713.69;4939137;28;102281;-62
2022/06/29 00:45:41;;;;;;;;;1.00;1.00;;;;;26.04;49.44;98714.81;4923893;28;102228;-63
2022/06/29 00:48:09;;;;;;;;;0.00;0.00;;;;;26.05;49.44;98710.09;4943360;28;102508;-62
2022/06/29 00:50:36;;;;;;;;;1.00;1.00;;;;;26.07;49.48;98710.63;4933877;28;104256;-62
2022/06/29 00:53:04;;;;;;;;;1.00;1.00;;;;;26.07;49.49;98711.44;4932640;28;102571;-62
2022/06/29 00:55:33;;;;;;;;;0.67;0.67;;;;;26.07;49.39;98705.88;4937569;28;102392;-63
2022/06/29 00:58:05;;;;;;;;;1.00;1.00;;;;;26.07;49.45;98694.00;4935682;28;102707;-62
2022/06/29 01:00:32;;;;;;;;;2.00;2.00;;;;;26.05;49.57;98702.59;4936152;28;109347;-63
2022/06/29 01:03:00;;;;;;;;;2.33;2.00;;;;;26.05;49.56;98693.47;4916476;28;102301;-62
2022/06/29 01:05:28;;;;;;;;;1.33;1.33;;;;;26.04;49.53;98686.25;4908039;28;102337;-62
2022/06/29 01:07:55;;;;;;;;;1.00;1.00;;;;;26.03;49.47;98682.66;4904157;28;102395;-62
2022/06/29 01:10:22;;;;;;;;;1.00;1.00;;;;;26.03;49.52;98684.63;4902513;28;104023;-62
2022/06/29 01:12:53;;;;;;;;;2.00;2.00;;;;;26.01;49.49;98681.34;4900606;28;102717;-62
2022/06/29 01:15:20;;;;;;;;;1.00;1.00;;;;;26.02;49.44;98694.06;4879599;28;102177;-63
2022/06/29 01:17:47;;;;;;;;;0.33;0.33;;;;;26.01;49.55;98693.25;4916001;28;102294;-62
2022/06/29 01:20:14;;;;;;;;;2.00;2.00;;;;;26.02;49.43;98680.22;4930947;28;105421;-62
2022/06/29 01:22:41;;;;;;;;;1.00;1.00;;;;;26.02;49.42;98680.22;4929440;28;103561;-62
2022/06/29 01:25:09;;;;;;;;;0.33;0.33;;;;;26.04;49.28;98689.03;4934902;28;102346;-62
2022/06/29 01:27:36;;;;;;;;;2.00;2.00;;;;;26.02;49.40;98678.28;4934194;28;102220;-62
2022/06/29 01:30:07;;;;;;;;;3.00;1.67;;;;;26.03;49.40;98677.13;4930640;28;104265;-62
2022/06/29 01:32:38;;;;;;;;;2.00;1.00;;;;;26.03;49.36;98665.22;4929793;28;102563;-62
2022/06/29 01:35:11;;;;;;;;;1.00;1.00;;;;;26.04;49.15;98653.00;4927034;28;102197;-62
2022/06/29 01:37:39;;;;;;;;;0.67;0.67;;;;;26.02;49.40;98639.47;4934279;28;102167;-63
2022/06/29 01:40:07;;;;;;;;;2.00;2.00;;;;;26.01;49.43;98642.53;4927901;28;109104;-62
2022/06/29 01:42:34;;;;;;;;;1.00;0.33;;;;;25.99;49.45;98640.06;4938299;28;102529;-63
2022/06/29 01:45:02;;;;;;;;;1.67;1.67;;;;;25.98;49.42;98638.41;4929261;28;102393;-62
2022/06/29 01:47:29;;;;;;;;;1.00;1.00;;;;;25.98;49.53;98637.59;4924537;28;102499;-62
2022/06/29 01:49:56;;;;;;;;;1.00;1.00;;;;;26.00;49.38;98646.44;4932533;28;104807;-62
2022/06/29 01:52:24;;;;;;;;;1.67;1.00;;;;;25.97;49.55;98642.31;4931030;28;102226;-62
2022/06/29 01:54:51;;;;;;;;;0.00;0.00;;;;;25.99;49.51;98642.81;4915970;28;102224;-62
2022/06/29 01:57:18;;;;;;;;;1.67;1.67;;;;;26.01;49.15;98643.38;4933685;28;102133;-63
2022/06/29 01:59:45;;;;;;;;;2.00;2.00;;;;;26.00;49.44;98646.44;4937383;28;104247;-62
2022/06/29 02:02:12;;;;;;;;;1.33;1.33;;;;;26.01;49.42;98653.63;4941619;28;102101;-62
2022/06/29 02:04:39;;;;;;;;;1.00;1.00;;;;;26.01;49.28;98654.44;4933460;28;103019;-63
2022/06/29 02:07:06;;;;;;;;;1.00;1.00;;;;;26.02;49.31;98655.28;4937486;28;102608;-62
2022/06/29 02:09:34;;;;;;;;;2.33;2.00;;;;;26.02;49.36;98655.28;4930059;28;104265;-62
2022/06/29 02:12:01;;;;;;;;;1.00;1.00;;;;;26.01;49.29;98653.63;4920784;28;102747;-62
2022/06/29 02:14:28;;;;;;;;;1.33;1.33;;;;;26.01;49.31;98656.41;4939350;28;102749;-62
2022/06/29 02:16:55;;;;;;;;;1.67;1.67;;;;;26.00;49.48;98646.44;4939660;28;102284;-62
2022/06/29 02:19:22;;;;;;;;;2.00;1.00;;;;;25.99;49.40;98650.31;4929273;28;104224;-62
2022/06/29 02:21:49;;;;;;;;;1.00;1.00;;;;;26.00;49.38;98650.03;4937723;28;102330;-62
2022/06/29 02:24:17;;;;;;;;;1.00;1.00;;;;;26.00;49.26;98657.50;4933368;28;111211;-62
2022/06/29 02:26:44;;;;;;;;;2.00;2.00;;;;;25.99;49.28;98645.59;4945438;28;102184;-62
2022/06/29 02:29:11;;;;;;;;;0.00;0.00;;;;;25.98;49.39;98645.91;4940785;28;104440;-62
2022/06/29 02:37:10;;;;;;;;;1.00;1.00;;;;;25.97;49.38;98652.56;4935166;28;102127;-62
2022/06/29 02:39:38;;;;;;;;;1.00;1.00;;;;;25.99;49.37;98644.78;4941631;28;109819;-62
2022/06/29 02:42:05;;;;;;;;;1.33;1.33;;;;;25.97;49.18;98636.78;4936991;28;102444;-62
2022/06/29 02:44:32;;;;;;;;;0.67;0.67;;;;;25.98;49.33;98632.84;4942727;28;102343;-62
2022/06/29 02:46:59;;;;;;;;;2.00;2.00;;;;;25.97;49.42;98630.41;4942848;28;102166;-62
2022/06/29 02:49:27;;;;;;;;;2.00;2.00;;;;;25.97;49.34;98635.94;4935013;28;103906;-62
2022/06/29 02:51:54;;;;;;;;;2.00;2.00;;;;;25.98;49.28;98643.16;4941992;28;102302;-62
2022/06/29 02:54:21;;;;;;;;;1.67;1.67;;;;;25.96;49.35;98639.84;4924617;28;103236;-62
2022/06/29 02:56:48;;;;;;;;;2.00;1.33;;;;;25.95;49.33;98638.19;4936768;28;103230;-62
2022/06/29 02:59:15;;;;;;;;;1.00;1.00;;;;;25.95;49.25;98635.41;4939118;28;103510;-62
2022/06/29 03:01:42;;;;;;;;;1.67;1.67;;;;;25.95;49.35;98625.16;4934272;28;102350;-62
2022/06/29 03:04:09;;;;;;;;;1.00;1.00;;;;;25.96;49.49;98617.66;4926695;28;102511;-62
2022/06/29 03:06:36;;;;;;;;;2.00;2.00;;;;;25.96;49.29;98618.50;4938794;28;102165;-62
2022/06/29 03:09:04;;;;;;;;;1.67;1.67;;;;;25.95;49.18;98616.00;4938770;28;104070;-62
2022/06/29 03:11:31;;;;;;;;;2.00;1.33;;;;;25.96;49.34;98610.19;4937486;28;102337;-62
2022/06/29 03:13:58;;;;;;;;;1.33;1.33;;;;;25.96;49.23;98606.59;4926847;28;102756;-63
2022/06/29 03:16:26;;;;;;;;;1.33;1.33;;;;;25.95;49.22;98604.94;4925700;28;102141;-62
2022/06/29 03:18:53;;;;;;;;;1.67;1.00;;;;;25.94;49.34;98601.34;4933752;28;104169;-62
2022/06/29 03:21:20;;;;;;;;;2.00;2.00;;;;;25.95;49.25;98596.63;4931191;28;102637;-62
2022/06/29 03:23:47;;;;;;;;;0.33;0.33;;;;;25.93;49.33;98591.41;4945984;28;102466;-62
2022/06/29 03:26:14;;;;;;;;;2.00;2.00;;;;;25.93;49.37;98596.13;4946907;28;102438;-62
2022/06/29 03:28:41;;;;;;;;;2.00;2.00;;;;;25.92;49.28;98600.81;4948709;28;104120;-62
2022/06/29 03:31:08;;;;;;;;;1.00;0.67;;;;;25.92;49.35;98597.22;4932904;28;102319;-62
2022/06/29 03:33:36;;;;;;;;;1.67;1.67;;;;;25.91;49.39;98590.88;4941228;28;102067;-62
2022/06/29 03:36:03;;;;;;;;;1.67;1.67;;;;;25.91;49.37;98584.50;4940407;28;102380;-62
2022/06/29 03:38:30;;;;;;;;;1.00;1.00;;;;;25.90;49.38;98577.31;4939104;28;104157;-62
2022/06/29 03:40:57;;;;;;;;;1.67;1.67;;;;;25.91;49.38;98582.56;4945853;28;102635;-62
2022/06/29 03:43:24;;;;;;;;;1.67;1.67;;;;;25.92;49.29;98580.59;4942988;28;102193;-62
2022/06/29 03:45:51;;;;;;;;;1.67;1.67;;;;;25.92;49.26;98591.69;4941451;28;102121;-63
2022/06/29 03:48:18;;;;;;;;;2.00;2.00;;;;;25.92;49.46;98580.59;4941977;28;110828;-62
2022/06/29 03:50:45;;;;;;;;;3.00;3.00;;;;;25.92;49.27;98584.22;4940627;28;102129;-62
2022/06/29 03:53:16;;;;;;;;;2.00;2.00;;;;;25.90;49.35;98580.91;4937954;28;102103;-62
2022/06/29 03:55:43;;;;;;;;;2.00;2.00;;;;;25.89;49.42;98572.91;4941315;28;102402;-62
2022/06/29 03:58:10;;;;;;;;;1.00;0.67;;;;;25.89;49.55;98584.81;4935270;28;109034;-62
2022/06/29 04:00:37;;;;;;;;;1.67;1.67;;;;;25.88;49.39;98574.03;4936117;28;102391;-62
2022/06/29 04:03:04;;;;;;;;;1.00;1.00;;;;;25.86;49.32;98576.25;4932620;28;102401;-62
2022/06/29 04:05:31;;;;;;;;;2.00;2.00;;;;;25.88;49.39;98565.72;4937993;28;103012;-62
2022/06/29 04:07:58;;;;;;;;;1.00;1.00;;;;;25.89;49.29;98561.81;4930762;28;104081;-62
2022/06/29 04:10:25;;;;;;;;;4.00;2.33;;;;;25.89;49.31;98561.81;4938024;28;102373;-63
2022/06/29 04:12:53;;;;;;;;;1.00;1.00;;;;;25.90;49.28;98563.44;4934223;28;102500;-62
2022/06/29 04:15:20;;;;;;;;;1.00;1.00;;;;;25.89;49.60;98559.06;4938778;28;102122;-63
2022/06/29 04:17:47;;;;;;;;;2.00;2.00;;;;;25.88;49.49;98565.72;4934312;28;104208;-62
2022/06/29 04:21:05;;;;;;;;;1.33;1.33;;;;;25.88;49.53;98568.47;4939440;28;104600;-62
2022/06/29 04:23:02;;;;;;;;;2.00;2.00;;;;;25.88;49.45;98574.03;4932288;28;102496;-62
2022/06/29 04:25:29;;;;;;;;;2.33;2.33;;;;;25.87;49.38;98586.22;4940166;28;102494;-62
2022/06/29 04:27:56;;;;;;;;;2.33;2.33;;;;;25.88;49.49;98587.88;4938968;28;104094;-62
2022/06/29 04:30:23;;;;;;;;;2.00;2.00;;;;;25.87;49.38;98578.75;4937220;28;102361;-62
2022/06/29 04:32:50;;;;;;;;;0.33;0.33;;;;;25.87;49.13;98567.66;4937888;28;102260;-62
2022/06/29 04:35:17;;;;;;;;;2.00;2.00;;;;;25.87;49.43;98569.59;4936878;28;102554;-61
2022/06/29 04:37:44;;;;;;;;;2.00;2.00;;;;;25.88;49.44;98571.25;4939357;28;104102;-62
2022/06/29 04:40:12;;;;;;;;;1.00;1.00;;;;;25.88;49.33;98583.16;4942309;28;102097;-62
2022/06/29 04:42:39;;;;;;;;;1.67;1.67;;;;;25.87;49.47;98586.22;4936712;28;102028;-62
2022/06/29 04:45:07;;;;;;;;;2.00;2.00;;;;;25.88;49.45;98593.41;4936602;28;103072;-62
2022/06/29 04:50:38;;;;;;;;;1.00;1.00;;;;;25.89;49.35;98584.00;4935592;28;102648;-62
2022/06/29 04:53:05;;;;;;;;;2.00;2.00;;;;;25.89;49.44;98584.00;4931733;28;102109;-62
2022/06/29 04:55:32;;;;;;;;;1.33;1.00;;;;;25.88;49.42;98583.16;4942444;28;102710;-62
2022/06/29 04:57:59;;;;;;;;;1.67;1.67;;;;;25.89;49.29;98582.03;4940038;28;104085;-62
2022/06/29 05:00:26;;;;;;;;;1.00;1.00;;;;;25.89;49.31;98581.22;4941209;28;102239;-62
2022/06/29 05:02:53;;;;;;;;;1.00;0.33;;;;;25.89;49.33;98584.00;4934583;28;102534;-62
2022/06/29 05:05:21;;;;;;;;;2.00;2.00;;;;;25.89;49.29;98584.81;4940600;28;102111;-63
2022/06/29 05:07:48;;;;;;;;;2.00;2.00;;;;;25.89;49.32;98590.34;4932092;28;104094;-62
2022/06/29 05:10:15;;;;;;;;;3.00;2.00;;;;;25.90;49.29;98593.94;4938863;28;102184;-61
2022/06/29 05:12:43;;;;;;;;;0.33;0.33;;;;;25.91;49.31;98587.25;4947468;28;102340;-62
2022/06/29 05:15:10;;;;;;;;;1.33;1.33;;;;;25.90;49.38;98580.06;4939196;28;102187;-63
2022/06/29 05:17:37;;;;;;;;;2.33;2.00;;;;;25.90;49.22;98583.66;4938287;28;104396;-62
2022/06/29 05:20:08;;;;;;;;;3.00;3.00;;;;;25.92;49.26;98583.38;4937933;28;104974;-62
2022/06/29 05:22:35;;;;;;;;;2.00;2.00;;;;;25.93;49.33;98579.50;4927246;28;102948;-62
2022/06/29 05:25:03;;;;;;;;;2.00;1.00;;;;;25.92;49.26;98591.69;4935513;28;102393;-62
2022/06/29 05:27:30;;;;;;;;;1.33;1.33;;;;;25.93;49.24;98585.84;4933731;28;104952;-62
2022/06/29 05:29:57;;;;;;;;;1.00;1.00;;;;;25.93;49.21;98591.41;4947897;28;102568;-62
2022/06/29 05:32:24;;;;;;;;;1.67;1.67;;;;;25.93;49.29;98591.41;4938495;28;102471;-62
2022/06/29 05:34:51;;;;;;;;;2.00;1.00;;;;;25.93;49.33;98587.81;4929507;28;102506;-62
2022/06/29 05:37:18;;;;;;;;;3.00;2.67;;;;;25.93;49.32;98585.03;4934679;28;104095;-62
2022/06/29 05:39:45;;;;;;;;;1.00;1.00;;;;;25.91;49.17;98577.00;4938914;28;102649;-62
2022/06/29 05:42:13;;;;;;;;;1.67;1.67;;;;;25.93;49.19;98580.31;4944694;28;102186;-62
2022/06/29 05:44:41;;;;;;;;;2.00;2.00;;;;;25.93;49.11;98573.94;4940035;28;102582;-62
2022/06/29 05:47:08;;;;;;;;;1.67;1.67;;;;;25.93;49.20;98572.00;4939063;28;104028;-62
2022/06/29 05:49:35;;;;;;;;;2.00;1.00;;;;;25.93;49.25;98576.72;4931406;28;104218;-63
2022/06/29 05:52:03;;;;;;;;;1.00;0.33;;;;;25.94;49.18;98575.56;4940787;28;102191;-62
2022/06/29 05:54:30;;;;;;;;;2.00;2.00;;;;;25.95;49.19;98571.69;4941176;28;102168;-62
2022/06/29 05:56:57;;;;;;;;;2.00;1.00;;;;;25.94;49.19;98570.03;4931491;28;104080;-62
2022/06/29 05:59:24;;;;;;;;;1.00;1.00;;;;;25.94;49.20;98572.81;4941486;28;102136;-62
2022/06/29 06:01:51;;;;;;;;;3.00;2.67;;;;;25.94;49.26;98575.56;4939104;28;102222;-62
2022/06/29 06:04:19;;;;;;;;;1.67;1.67;;;;;25.93;49.37;98569.22;4932359;28;102344;-62
2022/06/29 06:06:46;;;;;;;;;4.00;3.00;;;;;25.93;49.18;98571.19;4944159;28;106365;-61
2022/06/29 06:09:13;;;;;;;;;2.67;2.00;;;;;25.93;49.19;98568.41;4941233;28;102649;-62
2022/06/29 06:11:40;;;;;;;;;2.33;2.33;;;;;25.92;49.25;98567.59;4945186;28;102111;-62
2022/06/29 06:14:07;;;;;;;;;1.00;0.33;;;;;25.93;49.24;98576.72;4944601;28;102178;-62
2022/06/29 06:16:34;;;;;;;;;2.00;2.00;;;;;25.92;49.26;98572.28;4941839;28;104217;-62
2022/06/29 06:19:07;;;;;;;;;1.00;1.00;;;;;25.92;49.28;98578.66;4932830;28;102514;-62
2022/06/29 06:21:37;;;;;;;;;1.00;1.00;;;;;25.92;49.28;98573.13;4930929;28;102192;-62
2022/06/29 06:24:04;;;;;;;;;2.00;2.00;;;;;25.93;49.23;98571.19;4937128;28;102579;-62
2022/06/29 06:26:31;;;;;;;;;1.67;1.67;;;;;25.93;49.23;98574.78;4946838;28;104224;-62
2022/06/29 06:28:59;;;;;;;;;2.00;2.00;;;;;25.94;49.19;98575.56;4938886;28;102341;-62
2022/06/29 06:31:26;;;;;;;;;1.33;1.33;;;;;25.95;49.17;98574.44;4971423;28;102461;-62
2022/06/29 06:33:54;;;;;;;;;1.67;1.33;;;;;25.94;49.20;98570.03;4944732;28;102148;-62
2022/06/29 06:36:22;;;;;;;;;1.00;1.00;;;;;25.94;49.09;98564.50;4933938;28;104229;-62
2022/06/29 06:38:49;;;;;;;;;1.00;1.00;;;;;25.95;49.27;98571.69;4938249;28;103449;-62
2022/06/29 06:41:21;;;;;;;;;1.33;1.33;;;;;25.94;49.20;98575.56;4970021;28;102376;-62
2022/06/29 06:43:50;;;;;;;;;2.00;2.00;;;;;25.92;49.40;98567.59;4939204;28;102279;-61
2022/06/29 06:46:17;;;;;;;;;1.67;1.67;;;;;25.94;49.11;98561.72;4926839;28;104122;-62
2022/06/29 06:48:45;;;;;;;;;2.00;2.00;;;;;25.93;49.33;98558.16;4939355;28;102090;-62
2022/06/29 06:51:12;;;;;;;;;0.67;0.67;;;;;25.94;49.19;98558.94;4942624;28;102544;-62
2022/06/29 06:53:39;;;;;;;;;1.00;1.00;;;;;25.94;49.17;98561.72;4944203;28;104361;-62
2022/06/29 06:56:06;;;;;;;;;2.00;2.00;;;;;25.94;49.09;98562.53;4944777;28;103616;-62
2022/06/29 06:58:36;;;;;;;;;0.67;0.67;;;;;25.95;49.23;98566.13;4938136;28;102422;-62
2022/06/29 07:01:12;;;;;;;;;2.00;1.67;;;;;25.97;49.07;98563.91;4941042;28;101981;-62
2022/06/29 07:03:39;;;;;;;;;1.00;1.00;;;;;25.96;49.01;98565.84;4972733;28;106103;-62
2022/06/29 07:06:07;;;;;;;;;2.00;2.00;;;;;25.97;49.17;98569.44;4923858;28;104237;-62
2022/06/29 07:08:35;;;;;;;;;1.67;1.67;;;;;25.98;49.15;98565.56;4928904;28;102485;-62
2022/06/29 07:11:03;;;;;;;;;2.00;2.00;;;;;25.97;49.10;98558.38;4934378;28;102307;-62
2022/06/29 07:13:33;;;;;;;;;1.67;1.67;;;;;25.98;49.04;98565.56;4922901;28;102526;-62
2022/06/29 07:16:03;;;;;;;;;1.00;0.00;;;;;25.96;49.14;98562.25;4932637;28;104092;-62
2022/06/29 07:18:31;;;;;;;;;1.00;1.00;;;;;25.98;49.12;98571.09;4945871;28;102417;-62
2022/06/29 07:20:58;;;;;;;;;3.00;3.00;;;;;25.97;49.23;98563.91;4934567;28;102573;-63
2022/06/29 07:23:25;;;;;;;;;1.00;1.00;;;;;25.96;49.03;98565.03;4938232;28;102543;-62
2022/06/29 07:25:52;;;;;;;;;2.00;2.00;;;;;25.96;49.02;98563.06;4943675;28;104108;-62
2022/06/29 07:28:19;;;;;;;;;1.00;1.00;;;;;25.98;49.07;98557.25;4941778;28;102096;-62
2022/06/29 07:30:46;;;;;;;;;2.00;2.00;;;;;25.98;49.13;98560.00;4937352;28;102289;-62
2022/06/29 07:33:14;;;;;;;;;1.67;1.67;;;;;25.98;49.06;98560.00;4940233;28;102493;-62
2022/06/29 07:35:41;;;;;;;;;2.67;1.67;;;;;25.98;49.01;98560.00;4931531;28;104107;-62
2022/06/29 07:38:09;;;;;;;;;0.33;0.00;;;;;25.98;49.13;98562.78;4938593;28;102606;-63
2022/06/29 07:40:36;;;;;;;;;1.67;1.67;;;;;25.99;49.03;98570.78;4937098;28;102396;-62
2022/06/29 07:43:03;;;;;;;;;2.00;2.00;;;;;25.99;49.08;98570.78;4926524;28;102622;-62
2022/06/29 07:45:31;;;;;;;;;1.00;1.00;;;;;25.98;48.99;98560.00;4935891;28;103505;-63
2022/06/29 07:48:01;;;;;;;;;1.00;1.00;;;;;25.99;48.98;98547.78;4944604;28;102315;-62
2022/06/29 07:50:28;;;;;;;;;2.00;1.00;;;;;25.98;49.01;98549.72;4943487;28;102441;-62
2022/06/29 07:52:55;;;;;;;;;1.67;1.67;;;;;25.99;49.13;98545.00;4940105;28;102505;-62
2022/06/29 07:55:24;;;;;;;;;3.00;2.00;;;;;25.98;49.08;98544.19;4942244;28;104141;-62
2022/06/29 07:57:52;;;;;;;;;2.00;1.33;;;;;25.99;48.99;98545.84;4934625;28;102164;-62
2022/06/29 08:00:19;;;;;;;;;2.00;2.00;;;;;26.00;48.98;98550.25;4936835;28;102251;-62
2022/06/29 08:02:48;;;;;;;;;1.00;1.00;;;;;26.00;48.98;98549.44;4939031;28;102694;-62
2022/06/29 08:05:15;;;;;;;;;2.00;2.00;;;;;26.01;49.00;98543.59;4941701;28;104058;-62
2022/06/29 08:07:42;;;;;;;;;1.00;1.00;;;;;26.02;48.93;98538.88;4928278;28;102296;-62
2022/06/29 08:10:09;;;;;;;;;2.00;2.00;;;;;26.02;48.85;98545.25;4936915;28;102559;-62
2022/06/29 08:12:36;;;;;;;;;1.00;1.00;;;;;26.03;49.00;98534.97;4936825;28;102347;-62
2022/06/29 08:15:04;;;;;;;;;2.67;1.67;;;;;26.03;49.00;98529.41;4928849;28;104247;-62
2022/06/29 08:17:31;;;;;;;;;2.00;2.00;;;;;26.03;49.05;98518.34;4939893;28;102262;-62
2022/06/29 08:20:01;;;;;;;;;0.00;0.00;;;;;26.03;49.02;98523.88;4945107;28;102213;-62
2022/06/29 08:22:28;;;;;;;;;2.00;2.00;;;;;26.03;48.92;98507.25;4944459;28;102315;-62
2022/06/29 08:24:55;;;;;;;;;1.67;1.67;;;;;26.03;48.92;98510.03;4944788;28;104245;-62
2022/06/29 08:27:22;;;;;;;;;1.00;1.00;;;;;26.03;48.88;98498.94;4942819;28;102696;-62
2022/06/29 08:30:11;;;;;;;;;1.33;1.33;;;;;26.03;48.94;98502.53;4933470;28;102767;-62
2022/06/29 08:32:42;;;;;;;;;1.00;1.00;;;;;26.05;48.93;98502.25;4936815;28;102441;-62
2022/06/29 08:35:10;;;;;;;;;1.00;1.00;;;;;26.05;48.82;98496.69;4938195;28;104189;-62
2022/06/29 08:37:37;;;;;;;;;1.00;1.00;;;;;26.06;48.85;98495.59;4933537;28;102555;-62
2022/06/29 08:40:10;;;;;;;;;0.33;0.33;;;;;26.07;48.76;98491.69;4935828;28;102166;-62
2022/06/29 08:42:37;;;;;;;;;2.00;2.00;;;;;26.06;48.86;98488.09;4939795;28;102617;-62
2022/06/29 08:45:05;;;;;;;;;1.67;1.67;;;;;26.08;48.75;98487.75;4943355;28;104092;-62
2022/06/29 08:47:33;;;;;;;;;2.00;2.00;;;;;26.08;48.79;98488.59;4967435;28;102384;-62
2022/06/29 08:50:03;;;;;;;;;2.00;1.00;;;;;26.08;48.86;98488.59;4939242;28;102369;-62
2022/06/29 08:52:30;;;;;;;;;2.00;2.00;;;;;26.08;48.79;98482.22;4942351;28;102194;-62
2022/06/29 08:54:57;;;;;;;;;1.33;1.33;;;;;26.09;49.07;98478.34;4938961;28;104271;-62
2022/06/29 08:57:25;;;;;;;;;2.00;1.67;;;;;26.08;48.78;98485.81;4941196;28;102581;-62
2022/06/29 08:59:52;;;;;;;;;0.00;0.00;;;;;26.08;48.86;98480.28;4943731;28;102516;-62
2022/06/29 09:02:28;;;;;;;;;1.00;1.00;;;;;26.11;48.79;98487.19;4934836;28;102669;-62
2022/06/29 09:04:56;;;;;;;;;1.00;1.00;;;;;26.10;48.73;98474.44;4930760;28;104336;-62
2022/06/29 09:07:24;;;;;;;;;1.00;1.00;;;;;26.11;48.71;98476.09;4946210;28;102537;-62
2022/06/29 09:09:56;;;;;;;;;1.00;1.00;;;;;26.11;48.75;98478.88;4946672;28;102246;-62
2022/06/29 09:12:24;;;;;;;;;0.67;0.67;;;;;26.13;48.79;98473.81;4941550;28;102141;-62
2022/06/29 09:14:51;;;;;;;;;0.00;0.00;;;;;26.13;48.69;98479.38;4946896;28;109040;-62
2022/06/29 09:17:18;;;;;;;;;2.00;2.00;;;;;26.14;48.84;98469.94;4931513;28;103311;-62
2022/06/29 09:19:46;;;;;;;;;1.00;1.00;;;;;26.14;48.77;98476.28;4939542;28;102179;-63
2022/06/29 09:22:13;;;;;;;;;1.00;1.00;;;;;26.14;48.79;98469.94;4944950;28;102285;-62
2022/06/29 09:24:41;;;;;;;;;1.67;1.67;;;;;26.14;48.71;98470.75;4942174;28;104268;-62
2022/06/29 09:27:28;;;;;;;;;0.00;0.00;;;;;26.14;48.87;98469.94;4935475;28;102558;-62
2022/06/29 09:29:55;;;;;;;;;1.00;1.00;;;;;26.14;48.68;98459.66;4948288;28;102157;-62
2022/06/29 09:32:25;;;;;;;;;2.33;2.00;;;;;26.16;48.79;98462.16;4945029;28;103008;-62
2022/06/29 09:34:52;;;;;;;;;1.33;1.00;;;;;26.16;48.72;98462.16;4944072;28;108985;-62
2022/06/29 09:37:21;;;;;;;;;1.00;0.00;;;;;26.16;48.61;98462.94;4936475;28;102424;-62
2022/06/29 09:39:51;;;;;;;;;2.33;1.67;;;;;26.18;48.70;98454.31;4935944;28;102115;-62
2022/06/29 09:42:19;;;;;;;;;1.00;0.00;;;;;26.18;48.65;98460.69;4951436;28;102199;-62
2022/06/29 09:44:47;;;;;;;;;2.00;2.00;;;;;26.19;48.68;98456.81;4949129;28;104128;-62
2022/06/29 09:47:19;;;;;;;;;1.00;1.00;;;;;26.21;48.66;98452.94;4942121;28;102598;-62
2022/06/29 09:49:52;;;;;;;;;1.67;1.67;;;;;26.20;48.77;98449.31;4942030;28;102317;-62
2022/06/29 09:52:19;;;;;;;;;1.00;1.00;;;;;26.20;48.60;98452.09;4946892;28;102623;-62
2022/06/29 09:54:56;;;;;;;;;0.00;0.00;;;;;26.21;48.65;98453.72;4935478;28;104059;-63
2022/06/29 09:57:31;;;;;;;;;1.00;0.33;;;;;26.21;48.69;98442.66;4969603;28;102162;-62
2022/06/29 10:02:52;;;;;;;;;2.67;1.00;;;;;26.23;48.63;98440.41;4944728;28;102577;-62
2022/06/29 10:05:25;;;;;;;;;1.00;1.00;;;;;26.23;48.67;98443.19;4935411;28;104185;-62
2022/06/29 10:07:53;;;;;;;;;2.00;2.00;;;;;26.24;48.59;98435.69;4944424;28;102294;-62
2022/06/29 10:10:22;;;;;;;;;2.00;2.00;;;;;26.25;48.62;98443.72;4946195;28;104290;-62
2022/06/29 10:16:02;;;;;;;;;0.33;0.33;;;;;26.26;48.61;98428.69;4942752;28;108851;-62
2022/06/29 10:18:44;;;;;;;;;2.00;2.00;;;;;26.27;48.52;98423.97;4937117;28;102342;-62
2022/06/29 10:21:13;;;;;;;;;0.00;0.00;;;;;26.27;48.53;98433.13;4940711;28;104109;-62
2022/06/29 10:23:56;;;;;;;;;2.00;1.00;;;;;26.28;48.67;98443.09;4936926;28;102581;-62
2022/06/29 10:29:07;;;;;;;;;0.67;0.67;;;;;26.29;48.57;98438.38;4933231;28;102304;-62
2022/06/29 10:31:53;;;;;;;;;2.00;2.00;;;;;26.29;48.61;98435.59;4933433;28;102321;-62
2022/06/29 10:34:30;;;;;;;;;0.67;0.67;;;;;26.30;48.61;98435.25;4950078;28;102432;-62
2022/06/29 10:37:08;;;;;;;;;1.00;1.00;;;;;26.29;48.58;98433.66;4934842;28;109118;-62
2022/06/29 10:39:35;;;;;;;;;1.00;1.00;;;;;26.31;48.52;98423.06;4934707;28;102734;-62
2022/06/29 10:45:15;;;;;;;;;2.00;1.00;;;;;26.32;48.55;98427.47;4923927;28;102525;-63
2022/06/29 10:47:44;;;;;;;;;1.00;1.00;;;;;26.33;48.26;98423.56;4928903;28;108864;-62
2022/06/29 10:50:14;;;;;;;;;0.33;0.33;;;;;26.34;48.40;98414.13;4936397;28;102513;-63
2022/06/29 10:52:41;;;;;;;;;1.33;1.00;;;;;26.35;48.42;98414.94;4932862;28;104911;-62
2022/06/29 10:55:08;;;;;;;;;1.67;1.67;;;;;26.36;48.45;98417.41;4943853;28;102162;-62
2022/06/29 10:57:36;;;;;;;;;1.33;1.33;;;;;26.37;48.59;98412.69;4944030;28;104239;-62
2022/06/29 11:00:08;;;;;;;;;0.33;0.33;;;;;26.36;48.41;98400.78;4939946;28;102822;-62
2022/06/29 11:02:36;;;;;;;;;0.67;0.67;;;;;26.36;48.26;98403.53;4937588;28;102380;-62
2022/06/29 11:05:04;;;;;;;;;0.33;0.33;;;;;26.36;48.33;98409.09;4943476;28;102251;-62
2022/06/29 11:13:11;;;;;;;;;1.33;1.00;;;;;26.39;48.33;98394.59;4937623;28;102123;-62
2022/06/29 11:18:11;;;;;;;;;0.33;0.33;;;;;26.41;48.48;98397.91;4934129;28;104186;-62
2022/06/29 11:20:41;;;;;;;;;0.67;0.67;;;;;26.42;48.11;98396.78;4936924;28;102520;-61
2022/06/29 11:23:29;;;;;;;;;1.00;1.00;;;;;26.42;48.37;98394.00;4944073;28;102144;-62
2022/06/29 11:25:57;;;;;;;;;0.00;0.00;;;;;26.42;48.28;98396.78;4939593;28;104788;-62
2022/06/29 11:28:28;;;;;;;;;2.00;1.00;;;;;26.44;48.28;98402.00;4945113;28;104158;-61
2022/06/29 11:31:00;;;;;;;;;2.00;1.00;;;;;26.44;48.20;98394.50;4944410;28;102299;-62
2022/06/29 11:33:29;;;;;;;;;1.00;1.00;;;;;26.45;48.22;98387.00;4942269;28;102240;-61
2022/06/29 11:35:57;;;;;;;;;1.00;1.00;;;;;26.45;48.34;98387.81;4944945;28;111104;-61
2022/06/29 11:38:27;;;;;;;;;1.00;1.00;;;;;26.45;48.39;98382.28;4942165;28;108852;-61
2022/06/29 11:40:55;;;;;;;;;2.00;2.00;;;;;26.46;48.37;98383.94;4940995;28;102142;-61
2022/06/29 11:43:42;;;;;;;;;0.00;0.00;;;;;26.47;48.07;98390.31;4935623;28;104432;-61
2022/06/29 11:46:22;;;;;;;;;1.00;1.00;;;;;26.48;48.24;98384.44;4938011;28;102420;-61
2022/06/29 11:51:52;;;;;;;;;2.00;1.33;;;;;26.50;48.13;98382.19;4936876;28;102164;-61
2022/06/29 11:54:46;;;;;;;;;1.67;1.00;;;;;26.51;48.03;98381.06;4933879;28;102210;-61
2022/06/29 11:57:15;;;;;;;;;1.67;1.67;;;;;26.52;48.25;98388.22;4945911;28;102197;-62
2022/06/29 11:59:46;;;;;;;;;2.00;2.00;;;;;26.52;48.30;98382.66;4944095;28;104258;-61
2022/06/29 12:02:14;;;;;;;;;0.00;0.00;;;;;26.54;48.10;98376.81;4938301;28;102312;-62